sensor_id;sensor_type;location;lat;lon;timestamp;temperature;humidity
18654;DHT22;9456;47.824;16.228;2023-07-08T00:01:21;16.00;99.90
18654;DHT22;9456;47.824;16.228;2023-07-08T00:03:50;15.90;99.90
18654;DHT22;9456;47.824;16.228;2023-07-08T00:06:21;15.90;99.90
18654;DHT22;9456;47.824;16.228;2023-07-08T00:08:48;15.80;99.90
18654;DHT22;9456;47.824;16.228;2023-07-08T00:11:17;15.80;99.90
18654;DHT22;9456;47.824;16.228;2023-07-08T00:13:46;15.80;99.90
18654;DHT22;9456;47.824;16.228;2023-07-08T00:16:16;15.80;99.90
18654;DHT22;9456;47.824;16.228;2023-07-08T00:18:44;15.80;99.90
18654;DHT22;9456;47.824;16.228;2023-07-08T00:21:15;15.80;99.90
18654;DHT22;9456;47.824;16.228;2023-07-08T00:23:45;15.80;99.90
18654;DHT22;9456;47.824;16.228;2023-07-08T00:26:17;15.70;99.90
18654;DHT22;9456;47.824;16.228;2023-07-08T00:28:44;15.60;99.90
18654;DHT22;9456;47.824;16.228;2023-07-08T00:31:13;15.60;99.90
18654;DHT22;9456;47.824;16.228;2023-07-08T00:33:42;15.60;99.90
18654;DHT22;9456;47.824;16.228;2023-07-08T00:36:12;15.60;99.90
18654;DHT22;9456;47.824;16.228;2023-07-08T00:38:41;15.60;99.90
18654;DHT22;9456;47.824;16.228;2023-07-08T00:41:16;15.60;99.90
18654;DHT22;9456;47.824;16.228;2023-07-08T00:43:45;15.60;99.90
18654;DHT22;9456;47.824;16.228;2023-07-08T00:46:18;15.60;99.90
18654;DHT22;9456;47.824;16.228;2023-07-08T00:48:46;15.60;99.90
18654;DHT22;9456;47.824;16.228;2023-07-08T00:51:15;15.60;99.90
18654;DHT22;9456;47.824;16.228;2023-07-08T00:53:44;15.50;99.90
18654;DHT22;9456;47.824;16.228;2023-07-08T00:56:15;15.50;99.90
18654;DHT22;9456;47.824;16.228;2023-07-08T00:58:43;15.40;99.90
18654;DHT22;9456;47.824;16.228;2023-07-08T01:01:11;15.40;99.90
18654;DHT22;9456;47.824;16.228;2023-07-08T01:03:42;15.30;99.90
18654;DHT22;9456;47.824;16.228;2023-07-08T01:06:10;15.30;99.90
18654;DHT22;9456;47.824;16.228;2023-07-08T01:08:39;15.30;99.90
18654;DHT22;9456;47.824;16.228;2023-07-08T01:11:08;15.20;99.90
18654;DHT22;9456;47.824;16.228;2023-07-08T01:13:39;15.20;99.90
18654;DHT22;9456;47.824;16.228;2023-07-08T01:16:06;15.10;99.90
18654;DHT22;9456;47.824;16.228;2023-07-08T01:18:35;15.10;99.90
18654;DHT22;9456;47.824;16.228;2023-07-08T01:21:05;15.10;99.90
18654;DHT22;9456;47.824;16.228;2023-07-08T01:23:35;15.00;99.90
18654;DHT22;9456;47.824;16.228;2023-07-08T01:26:05;15.00;99.90
18654;DHT22;9456;47.824;16.228;2023-07-08T01:28:33;14.90;99.90
18654;DHT22;9456;47.824;16.228;2023-07-08T01:31:02;14.90;99.90
18654;DHT22;9456;47.824;16.228;2023-07-08T01:33:32;14.80;99.90
18654;DHT22;9456;47.824;16.228;2023-07-08T01:36:01;14.80;99.90
18654;DHT22;9456;47.824;16.228;2023-07-08T01:38:30;14.70;99.90
18654;DHT22;9456;47.824;16.228;2023-07-08T01:40:58;14.70;99.90
18654;DHT22;9456;47.824;16.228;2023-07-08T01:46:12;14.70;99.90
18654;DHT22;9456;47.824;16.228;2023-07-08T01:48:40;14.60;99.90
18654;DHT22;9456;47.824;16.228;2023-07-08T01:51:09;14.60;99.90
18654;DHT22;9456;47.824;16.228;2023-07-08T01:53:39;14.60;99.90
18654;DHT22;9456;47.824;16.228;2023-07-08T01:56:08;14.50;99.90
18654;DHT22;9456;47.824;16.228;2023-07-08T01:58:36;14.50;99.90
18654;DHT22;9456;47.824;16.228;2023-07-08T02:01:05;14.40;99.90
18654;DHT22;9456;47.824;16.228;2023-07-08T02:03:34;14.40;99.90
18654;DHT22;9456;47.824;16.228;2023-07-08T02:06:05;14.30;99.90
18654;DHT22;9456;47.824;16.228;2023-07-08T02:08:32;14.30;99.90
18654;DHT22;9456;47.824;16.228;2023-07-08T02:11:01;14.20;99.90
18654;DHT22;9456;47.824;16.228;2023-07-08T02:13:30;14.20;99.90
18654;DHT22;9456;47.824;16.228;2023-07-08T02:15:59;14.10;99.90
18654;DHT22;9456;47.824;16.228;2023-07-08T02:18:28;14.10;99.90
18654;DHT22;9456;47.824;16.228;2023-07-08T02:20:57;14.10;99.90
18654;DHT22;9456;47.824;16.228;2023-07-08T02:23:26;14.10;99.90
18654;DHT22;9456;47.824;16.228;2023-07-08T02:25:55;14.10;99.90
18654;DHT22;9456;47.824;16.228;2023-07-08T02:28:24;14.00;99.90
18654;DHT22;9456;47.824;16.228;2023-07-08T02:30:53;14.10;99.90
18654;DHT22;9456;47.824;16.228;2023-07-08T02:33:22;14.10;99.90
18654;DHT22;9456;47.824;16.228;2023-07-08T02:35:51;14.10;99.90
18654;DHT22;9456;47.824;16.228;2023-07-08T02:38:20;14.10;99.90
18654;DHT22;9456;47.824;16.228;2023-07-08T02:40:49;14.20;99.90
18654;DHT22;9456;47.824;16.228;2023-07-08T02:43:18;14.20;99.90
18654;DHT22;9456;47.824;16.228;2023-07-08T02:45:58;14.20;99.90
18654;DHT22;9456;47.824;16.228;2023-07-08T02:48:27;14.20;99.90
18654;DHT22;9456;47.824;16.228;2023-07-08T02:51:01;14.20;99.90
18654;DHT22;9456;47.824;16.228;2023-07-08T02:53:29;14.20;99.90
18654;DHT22;9456;47.824;16.228;2023-07-08T02:55:58;14.20;99.90
18654;DHT22;9456;47.824;16.228;2023-07-08T02:58:27;14.20;99.90
18654;DHT22;9456;47.824;16.228;2023-07-08T03:00:56;14.20;99.90
18654;DHT22;9456;47.824;16.228;2023-07-08T03:03:25;14.10;99.90
18654;DHT22;9456;47.824;16.228;2023-07-08T03:05:59;14.00;99.90
18654;DHT22;9456;47.824;16.228;2023-07-08T03:08:27;13.90;99.90
18654;DHT22;9456;47.824;16.228;2023-07-08T03:10:57;13.90;99.90
18654;DHT22;9456;47.824;16.228;2023-07-08T03:13:25;13.80;99.90
18654;DHT22;9456;47.824;16.228;2023-07-08T03:15:54;13.80;99.90
18654;DHT22;9456;47.824;16.228;2023-07-08T03:18:23;13.80;99.90
18654;DHT22;9456;47.824;16.228;2023-07-08T03:20:52;13.80;99.90
18654;DHT22;9456;47.824;16.228;2023-07-08T03:23:21;13.70;99.90
18654;DHT22;9456;47.824;16.228;2023-07-08T03:25:50;13.80;99.90
18654;DHT22;9456;47.824;16.228;2023-07-08T03:28:19;13.70;99.90
18654;DHT22;9456;47.824;16.228;2023-07-08T03:30:51;13.80;99.90
18654;DHT22;9456;47.824;16.228;2023-07-08T03:33:16;13.80;99.90
18654;DHT22;9456;47.824;16.228;2023-07-08T03:35:45;13.80;99.90
18654;DHT22;9456;47.824;16.228;2023-07-08T03:38:16;13.80;99.90
18654;DHT22;9456;47.824;16.228;2023-07-08T03:40:44;13.90;99.90
18654;DHT22;9456;47.824;16.228;2023-07-08T03:43:13;13.90;99.90
18654;DHT22;9456;47.824;16.228;2023-07-08T03:45:43;14.00;99.90
18654;DHT22;9456;47.824;16.228;2023-07-08T03:48:18;14.10;99.90
18654;DHT22;9456;47.824;16.228;2023-07-08T03:50:47;14.20;99.90
18654;DHT22;9456;47.824;16.228;2023-07-08T03:53:16;14.30;99.90
18654;DHT22;9456;47.824;16.228;2023-07-08T03:55:45;14.50;99.90
18654;DHT22;9456;47.824;16.228;2023-07-08T03:58:14;14.70;99.90
18654;DHT22;9456;47.824;16.228;2023-07-08T04:00:43;14.90;99.90
18654;DHT22;9456;47.824;16.228;2023-07-08T04:03:12;15.00;99.90
18654;DHT22;9456;47.824;16.228;2023-07-08T04:05:41;15.20;99.90
18654;DHT22;9456;47.824;16.228;2023-07-08T04:08:10;15.40;99.90
18654;DHT22;9456;47.824;16.228;2023-07-08T04:10:39;15.50;99.90
18654;DHT22;9456;47.824;16.228;2023-07-08T04:13:08;15.70;99.90
18654;DHT22;9456;47.824;16.228;2023-07-08T04:15:37;15.90;99.90
18654;DHT22;9456;47.824;16.228;2023-07-08T04:18:06;16.10;99.90
18654;DHT22;9456;47.824;16.228;2023-07-08T04:20:35;16.30;99.90
18654;DHT22;9456;47.824;16.228;2023-07-08T04:23:03;16.40;99.90
18654;DHT22;9456;47.824;16.228;2023-07-08T04:25:32;16.60;99.90
18654;DHT22;9456;47.824;16.228;2023-07-08T04:28:01;16.80;99.90
18654;DHT22;9456;47.824;16.228;2023-07-08T04:30:30;17.00;99.90
18654;DHT22;9456;47.824;16.228;2023-07-08T04:32:59;17.20;99.90
18654;DHT22;9456;47.824;16.228;2023-07-08T04:35:28;17.40;99.90
18654;DHT22;9456;47.824;16.228;2023-07-08T04:37:57;17.60;99.90
18654;DHT22;9456;47.824;16.228;2023-07-08T04:40:26;17.80;99.90
18654;DHT22;9456;47.824;16.228;2023-07-08T04:42:55;18.00;99.90
18654;DHT22;9456;47.824;16.228;2023-07-08T04:45:24;18.20;99.90
18654;DHT22;9456;47.824;16.228;2023-07-08T04:47:53;18.30;99.90
18654;DHT22;9456;47.824;16.228;2023-07-08T04:50:22;18.40;99.90
18654;DHT22;9456;47.824;16.228;2023-07-08T04:52:51;18.50;99.90
18654;DHT22;9456;47.824;16.228;2023-07-08T04:55:21;18.70;99.90
18654;DHT22;9456;47.824;16.228;2023-07-08T04:57:49;18.90;99.90
18654;DHT22;9456;47.824;16.228;2023-07-08T05:00:18;19.10;99.90
18654;DHT22;9456;47.824;16.228;2023-07-08T05:02:47;19.30;99.90
18654;DHT22;9456;47.824;16.228;2023-07-08T05:05:16;19.50;99.90
18654;DHT22;9456;47.824;16.228;2023-07-08T05:07:45;19.80;99.90
18654;DHT22;9456;47.824;16.228;2023-07-08T05:10:15;20.10;99.90
18654;DHT22;9456;47.824;16.228;2023-07-08T05:12:43;20.40;99.90
18654;DHT22;9456;47.824;16.228;2023-07-08T05:15:13;20.70;99.90
18654;DHT22;9456;47.824;16.228;2023-07-08T05:17:42;21.20;99.90
18654;DHT22;9456;47.824;16.228;2023-07-08T05:20:12;21.60;99.90
18654;DHT22;9456;47.824;16.228;2023-07-08T05:22:41;22.00;99.90
18654;DHT22;9456;47.824;16.228;2023-07-08T05:25:10;22.30;99.90
18654;DHT22;9456;47.824;16.228;2023-07-08T05:27:39;22.60;99.90
18654;DHT22;9456;47.824;16.228;2023-07-08T05:30:10;22.80;99.90
18654;DHT22;9456;47.824;16.228;2023-07-08T05:32:38;23.10;99.90
18654;DHT22;9456;47.824;16.228;2023-07-08T05:35:07;23.30;99.90
18654;DHT22;9456;47.824;16.228;2023-07-08T05:37:36;23.40;99.90
18654;DHT22;9456;47.824;16.228;2023-07-08T05:40:08;23.50;99.90
18654;DHT22;9456;47.824;16.228;2023-07-08T05:42:36;23.60;99.90
18654;DHT22;9456;47.824;16.228;2023-07-08T05:45:07;23.80;99.90
18654;DHT22;9456;47.824;16.228;2023-07-08T05:47:36;23.80;99.90
18654;DHT22;9456;47.824;16.228;2023-07-08T05:50:06;24.00;99.90
18654;DHT22;9456;47.824;16.228;2023-07-08T05:52:41;24.30;99.90
18654;DHT22;9456;47.824;16.228;2023-07-08T05:55:11;24.50;99.90
18654;DHT22;9456;47.824;16.228;2023-07-08T05:57:40;24.50;99.90
18654;DHT22;9456;47.824;16.228;2023-07-08T06:00:10;24.70;99.90
18654;DHT22;9456;47.824;16.228;2023-07-08T06:02:39;24.80;99.90
18654;DHT22;9456;47.824;16.228;2023-07-08T06:05:09;25.10;99.90
18654;DHT22;9456;47.824;16.228;2023-07-08T06:07:38;25.40;97.30
18654;DHT22;9456;47.824;16.228;2023-07-08T06:10:08;25.60;95.90
18654;DHT22;9456;47.824;16.228;2023-07-08T06:12:37;25.70;95.10
18654;DHT22;9456;47.824;16.228;2023-07-08T06:15:07;25.70;95.80
18654;DHT22;9456;47.824;16.228;2023-07-08T06:17:36;25.70;95.40
18654;DHT22;9456;47.824;16.228;2023-07-08T06:20:08;25.70;94.50
18654;DHT22;9456;47.824;16.228;2023-07-08T06:22:37;25.80;95.70
18654;DHT22;9456;47.824;16.228;2023-07-08T06:25:07;26.10;93.30
18654;DHT22;9456;47.824;16.228;2023-07-08T06:27:36;26.30;93.60
18654;DHT22;9456;47.824;16.228;2023-07-08T06:30:07;26.30;92.50
18654;DHT22;9456;47.824;16.228;2023-07-08T06:32:36;26.60;91.10
18654;DHT22;9456;47.824;16.228;2023-07-08T06:35:05;26.80;92.40
18654;DHT22;9456;47.824;16.228;2023-07-08T06:37:34;26.90;87.00
18654;DHT22;9456;47.824;16.228;2023-07-08T06:40:04;27.10;85.30
18654;DHT22;9456;47.824;16.228;2023-07-08T06:42:33;27.30;84.90
18654;DHT22;9456;47.824;16.228;2023-07-08T06:45:02;27.50;84.70
18654;DHT22;9456;47.824;16.228;2023-07-08T06:47:31;27.50;88.50
18654;DHT22;9456;47.824;16.228;2023-07-08T06:50:00;27.70;84.90
18654;DHT22;9456;47.824;16.228;2023-07-08T06:52:28;27.90;83.20
18654;DHT22;9456;47.824;16.228;2023-07-08T06:55:03;28.00;80.10
18654;DHT22;9456;47.824;16.228;2023-07-08T06:57:31;28.00;81.90
18654;DHT22;9456;47.824;16.228;2023-07-08T07:00:00;28.20;79.70
18654;DHT22;9456;47.824;16.228;2023-07-08T07:02:29;28.30;78.50
18654;DHT22;9456;47.824;16.228;2023-07-08T07:04:58;28.50;79.20
18654;DHT22;9456;47.824;16.228;2023-07-08T07:07:27;28.70;75.80
18654;DHT22;9456;47.824;16.228;2023-07-08T07:09:56;28.90;73.90
18654;DHT22;9456;47.824;16.228;2023-07-08T07:12:25;28.90;75.60
18654;DHT22;9456;47.824;16.228;2023-07-08T07:14:54;29.00;71.50
18654;DHT22;9456;47.824;16.228;2023-07-08T07:17:23;28.80;71.70
18654;DHT22;9456;47.824;16.228;2023-07-08T07:19:52;28.70;72.40
18654;DHT22;9456;47.824;16.228;2023-07-08T07:22:21;28.60;71.70
18654;DHT22;9456;47.824;16.228;2023-07-08T07:24:50;28.30;71.30
18654;DHT22;9456;47.824;16.228;2023-07-08T07:27:18;27.90;73.30
18654;DHT22;9456;47.824;16.228;2023-07-08T07:29:48;27.80;75.60
18654;DHT22;9456;47.824;16.228;2023-07-08T07:32:17;27.80;76.00
18654;DHT22;9456;47.824;16.228;2023-07-08T07:34:48;27.90;74.40
18654;DHT22;9456;47.824;16.228;2023-07-08T07:37:18;28.20;77.30
18654;DHT22;9456;47.824;16.228;2023-07-08T07:39:46;28.40;76.80
18654;DHT22;9456;47.824;16.228;2023-07-08T07:42:16;28.70;74.20
18654;DHT22;9456;47.824;16.228;2023-07-08T07:44:44;28.80;71.70
18654;DHT22;9456;47.824;16.228;2023-07-08T07:47:13;28.70;72.00
18654;DHT22;9456;47.824;16.228;2023-07-08T07:49:43;28.90;71.30
18654;DHT22;9456;47.824;16.228;2023-07-08T07:52:12;29.10;70.30
18654;DHT22;9456;47.824;16.228;2023-07-08T07:54:41;29.20;69.90
18654;DHT22;9456;47.824;16.228;2023-07-08T07:57:20;29.30;72.20
18654;DHT22;9456;47.824;16.228;2023-07-08T07:59:49;29.30;69.30
18654;DHT22;9456;47.824;16.228;2023-07-08T08:02:18;29.40;69.40
18654;DHT22;9456;47.824;16.228;2023-07-08T08:04:47;29.10;69.90
18654;DHT22;9456;47.824;16.228;2023-07-08T08:07:16;29.10;70.40
18654;DHT22;9456;47.824;16.228;2023-07-08T08:09:45;28.90;68.30
18654;DHT22;9456;47.824;16.228;2023-07-08T08:12:14;28.40;71.00
18654;DHT22;9456;47.824;16.228;2023-07-08T08:14:43;27.90;73.30
18654;DHT22;9456;47.824;16.228;2023-07-08T08:17:12;27.60;73.50
18654;DHT22;9456;47.824;16.228;2023-07-08T08:19:41;27.40;75.90
18654;DHT22;9456;47.824;16.228;2023-07-08T08:22:10;27.50;75.50
18654;DHT22;9456;47.824;16.228;2023-07-08T08:24:39;27.60;73.40
18654;DHT22;9456;47.824;16.228;2023-07-08T08:27:08;27.50;74.60
18654;DHT22;9456;47.824;16.228;2023-07-08T08:29:37;27.40;77.00
18654;DHT22;9456;47.824;16.228;2023-07-08T08:32:07;27.50;77.90
18654;DHT22;9456;47.824;16.228;2023-07-08T08:34:36;27.20;78.00
18654;DHT22;9456;47.824;16.228;2023-07-08T08:37:05;27.40;79.50
18654;DHT22;9456;47.824;16.228;2023-07-08T08:39:34;27.50;81.10
18654;DHT22;9456;47.824;16.228;2023-07-08T08:42:04;27.90;81.80
18654;DHT22;9456;47.824;16.228;2023-07-08T08:44:34;28.20;77.60
18654;DHT22;9456;47.824;16.228;2023-07-08T08:47:04;28.20;77.80
18654;DHT22;9456;47.824;16.228;2023-07-08T08:49:35;27.80;76.90
18654;DHT22;9456;47.824;16.228;2023-07-08T08:52:02;27.90;78.50
18654;DHT22;9456;47.824;16.228;2023-07-08T08:54:31;28.00;76.80
18654;DHT22;9456;47.824;16.228;2023-07-08T08:57:02;28.20;79.80
18654;DHT22;9456;47.824;16.228;2023-07-08T08:59:41;28.00;76.60
18654;DHT22;9456;47.824;16.228;2023-07-08T09:02:21;28.20;79.20
18654;DHT22;9456;47.824;16.228;2023-07-08T09:04:48;28.30;76.70
18654;DHT22;9456;47.824;16.228;2023-07-08T09:07:17;28.30;77.50
18654;DHT22;9456;47.824;16.228;2023-07-08T09:09:47;28.10;79.00
18654;DHT22;9456;47.824;16.228;2023-07-08T09:12:16;28.20;78.10
18654;DHT22;9456;47.824;16.228;2023-07-08T09:14:44;28.40;77.30
18654;DHT22;9456;47.824;16.228;2023-07-08T09:17:17;28.60;73.30
18654;DHT22;9456;47.824;16.228;2023-07-08T09:19:47;28.80;74.60
18654;DHT22;9456;47.824;16.228;2023-07-08T09:22:15;28.90;75.50
18654;DHT22;9456;47.824;16.228;2023-07-08T09:24:46;29.10;72.40
18654;DHT22;9456;47.824;16.228;2023-07-08T09:27:13;29.10;70.80
18654;DHT22;9456;47.824;16.228;2023-07-08T09:29:41;29.20;70.50
18654;DHT22;9456;47.824;16.228;2023-07-08T09:32:18;29.20;71.50
18654;DHT22;9456;47.824;16.228;2023-07-08T09:34:46;29.10;71.60
18654;DHT22;9456;47.824;16.228;2023-07-08T09:37:26;28.80;73.50
18654;DHT22;9456;47.824;16.228;2023-07-08T09:39:55;28.50;72.60
18654;DHT22;9456;47.824;16.228;2023-07-08T09:42:25;28.50;73.20
18654;DHT22;9456;47.824;16.228;2023-07-08T09:44:55;28.60;73.10
18654;DHT22;9456;47.824;16.228;2023-07-08T09:47:25;28.70;69.60
18654;DHT22;9456;47.824;16.228;2023-07-08T09:49:53;28.80;69.10
18654;DHT22;9456;47.824;16.228;2023-07-08T09:52:22;28.90;70.80
18654;DHT22;9456;47.824;16.228;2023-07-08T09:54:51;29.00;68.80
18654;DHT22;9456;47.824;16.228;2023-07-08T09:57:24;29.00;69.90
18654;DHT22;9456;47.824;16.228;2023-07-08T09:59:53;29.10;68.60
18654;DHT22;9456;47.824;16.228;2023-07-08T10:02:31;29.10;67.30
18654;DHT22;9456;47.824;16.228;2023-07-08T10:05:00;29.10;69.00
18654;DHT22;9456;47.824;16.228;2023-07-08T10:07:30;29.30;67.90
18654;DHT22;9456;47.824;16.228;2023-07-08T10:10:00;29.30;67.20
18654;DHT22;9456;47.824;16.228;2023-07-08T10:12:28;29.20;66.10
18654;DHT22;9456;47.824;16.228;2023-07-08T10:17:47;28.80;64.20
18654;DHT22;9456;47.824;16.228;2023-07-08T10:20:16;28.90;64.40
18654;DHT22;9456;47.824;16.228;2023-07-08T10:22:51;29.10;65.40
18654;DHT22;9456;47.824;16.228;2023-07-08T10:25:26;29.20;66.00
18654;DHT22;9456;47.824;16.228;2023-07-08T10:27:56;29.20;65.80
18654;DHT22;9456;47.824;16.228;2023-07-08T10:30:25;29.30;65.00
18654;DHT22;9456;47.824;16.228;2023-07-08T10:33:04;29.30;64.70
18654;DHT22;9456;47.824;16.228;2023-07-08T10:35:32;29.00;62.60
18654;DHT22;9456;47.824;16.228;2023-07-08T10:38:07;29.00;64.70
18654;DHT22;9456;47.824;16.228;2023-07-08T10:40:42;29.10;64.10
18654;DHT22;9456;47.824;16.228;2023-07-08T10:46:24;29.20;63.00
18654;DHT22;9456;47.824;16.228;2023-07-08T10:51:54;29.10;61.60
18654;DHT22;9456;47.824;16.228;2023-07-08T10:57:22;28.90;62.70
18654;DHT22;9456;47.824;16.228;2023-07-08T10:59:55;28.80;62.60
18654;DHT22;9456;47.824;16.228;2023-07-08T11:02:52;28.80;62.00
18654;DHT22;9456;47.824;16.228;2023-07-08T11:05:25;28.70;62.00
18654;DHT22;9456;47.824;16.228;2023-07-08T11:07:53;28.70;61.30
18654;DHT22;9456;47.824;16.228;2023-07-08T11:10:23;28.70;62.10
18654;DHT22;9456;47.824;16.228;2023-07-08T11:12:52;28.70;61.70
18654;DHT22;9456;47.824;16.228;2023-07-08T11:15:21;28.70;60.10
18654;DHT22;9456;47.824;16.228;2023-07-08T11:17:51;28.60;59.70
18654;DHT22;9456;47.824;16.228;2023-07-08T11:20:21;28.60;60.90
18654;DHT22;9456;47.824;16.228;2023-07-08T11:22:51;28.60;60.80
18654;DHT22;9456;47.824;16.228;2023-07-08T11:25:20;28.70;60.60
18654;DHT22;9456;47.824;16.228;2023-07-08T11:27:50;28.80;60.60
18654;DHT22;9456;47.824;16.228;2023-07-08T11:30:19;28.80;61.10
18654;DHT22;9456;47.824;16.228;2023-07-08T11:32:47;28.90;58.30
18654;DHT22;9456;47.824;16.228;2023-07-08T11:35:17;28.80;58.50
18654;DHT22;9456;47.824;16.228;2023-07-08T11:37:45;28.80;57.70
18654;DHT22;9456;47.824;16.228;2023-07-08T11:40:20;28.80;58.30
18654;DHT22;9456;47.824;16.228;2023-07-08T11:42:50;28.80;58.40
18654;DHT22;9456;47.824;16.228;2023-07-08T11:45:26;28.90;58.00
18654;DHT22;9456;47.824;16.228;2023-07-08T11:47:54;28.90;57.60
18654;DHT22;9456;47.824;16.228;2023-07-08T11:50:24;29.00;57.40
18654;DHT22;9456;47.824;16.228;2023-07-08T11:52:54;28.90;56.90
18654;DHT22;9456;47.824;16.228;2023-07-08T11:55:24;28.80;56.20
18654;DHT22;9456;47.824;16.228;2023-07-08T11:57:54;28.80;56.80
18654;DHT22;9456;47.824;16.228;2023-07-08T12:00:25;28.80;57.90
18654;DHT22;9456;47.824;16.228;2023-07-08T12:02:55;28.90;56.90
18654;DHT22;9456;47.824;16.228;2023-07-08T12:08:13;29.10;55.60
18654;DHT22;9456;47.824;16.228;2023-07-08T12:10:46;29.00;54.80
18654;DHT22;9456;47.824;16.228;2023-07-08T12:13:12;28.90;55.80
18654;DHT22;9456;47.824;16.228;2023-07-08T12:15:41;28.90;55.00
18654;DHT22;9456;47.824;16.228;2023-07-08T12:18:14;29.10;55.70
18654;DHT22;9456;47.824;16.228;2023-07-08T12:20:43;29.00;54.20
18654;DHT22;9456;47.824;16.228;2023-07-08T12:23:12;29.00;53.60
18654;DHT22;9456;47.824;16.228;2023-07-08T12:25:40;29.10;54.10
18654;DHT22;9456;47.824;16.228;2023-07-08T12:28:11;29.00;52.90
18654;DHT22;9456;47.824;16.228;2023-07-08T12:30:40;29.10;54.90
18654;DHT22;9456;47.824;16.228;2023-07-08T12:33:13;29.10;54.00
18654;DHT22;9456;47.824;16.228;2023-07-08T12:35:41;29.20;54.20
18654;DHT22;9456;47.824;16.228;2023-07-08T12:38:15;29.10;54.00
18654;DHT22;9456;47.824;16.228;2023-07-08T12:40:43;29.00;54.00
18654;DHT22;9456;47.824;16.228;2023-07-08T12:43:12;28.90;53.70
18654;DHT22;9456;47.824;16.228;2023-07-08T12:45:41;28.90;53.70
18654;DHT22;9456;47.824;16.228;2023-07-08T12:48:10;28.90;53.70
18654;DHT22;9456;47.824;16.228;2023-07-08T12:50:39;28.90;54.30
18654;DHT22;9456;47.824;16.228;2023-07-08T12:53:10;29.00;54.70
18654;DHT22;9456;47.824;16.228;2023-07-08T12:55:40;29.10;54.50
18654;DHT22;9456;47.824;16.228;2023-07-08T12:58:10;29.10;54.60
18654;DHT22;9456;47.824;16.228;2023-07-08T13:00:39;29.20;53.10
18654;DHT22;9456;47.824;16.228;2023-07-08T13:03:10;29.20;52.60
18654;DHT22;9456;47.824;16.228;2023-07-08T13:05:37;29.30;53.30
18654;DHT22;9456;47.824;16.228;2023-07-08T13:08:06;29.20;52.80
18654;DHT22;9456;47.824;16.228;2023-07-08T13:10:35;29.20;52.40
18654;DHT22;9456;47.824;16.228;2023-07-08T13:13:04;29.30;53.30
18654;DHT22;9456;47.824;16.228;2023-07-08T13:15:34;29.30;52.80
18654;DHT22;9456;47.824;16.228;2023-07-08T13:18:02;29.20;52.10
18654;DHT22;9456;47.824;16.228;2023-07-08T13:20:31;29.20;52.90
18654;DHT22;9456;47.824;16.228;2023-07-08T13:23:01;29.10;52.30
18654;DHT22;9456;47.824;16.228;2023-07-08T13:25:30;29.00;52.80
18654;DHT22;9456;47.824;16.228;2023-07-08T13:28:00;29.00;52.70
18654;DHT22;9456;47.824;16.228;2023-07-08T13:30:29;29.00;52.90
18654;DHT22;9456;47.824;16.228;2023-07-08T13:32:58;29.10;52.80
18654;DHT22;9456;47.824;16.228;2023-07-08T13:35:27;29.20;52.40
18654;DHT22;9456;47.824;16.228;2023-07-08T13:37:56;29.20;52.30
18654;DHT22;9456;47.824;16.228;2023-07-08T13:40:27;29.30;52.80
18654;DHT22;9456;47.824;16.228;2023-07-08T13:42:56;29.30;52.80
18654;DHT22;9456;47.824;16.228;2023-07-08T13:45:26;29.20;51.80
18654;DHT22;9456;47.824;16.228;2023-07-08T13:48:02;29.20;52.20
18654;DHT22;9456;47.824;16.228;2023-07-08T13:50:39;29.20;53.50
18654;DHT22;9456;47.824;16.228;2023-07-08T13:53:00;29.20;52.80
18654;DHT22;9456;47.824;16.228;2023-07-08T13:55:29;29.20;52.50
18654;DHT22;9456;47.824;16.228;2023-07-08T13:57:59;29.20;52.50
18654;DHT22;9456;47.824;16.228;2023-07-08T14:00:29;29.20;52.40
18654;DHT22;9456;47.824;16.228;2023-07-08T14:02:58;29.20;52.30
18654;DHT22;9456;47.824;16.228;2023-07-08T14:05:27;29.20;52.50
18654;DHT22;9456;47.824;16.228;2023-07-08T14:07:56;29.20;52.30
18654;DHT22;9456;47.824;16.228;2023-07-08T14:10:25;29.20;51.60
18654;DHT22;9456;47.824;16.228;2023-07-08T14:12:54;29.10;51.80
18654;DHT22;9456;47.824;16.228;2023-07-08T14:15:23;29.00;52.20
18654;DHT22;9456;47.824;16.228;2023-07-08T14:17:52;28.90;52.80
18654;DHT22;9456;47.824;16.228;2023-07-08T14:20:21;28.90;53.50
18654;DHT22;9456;47.824;16.228;2023-07-08T14:22:50;29.00;53.40
18654;DHT22;9456;47.824;16.228;2023-07-08T14:25:19;29.00;52.60
18654;DHT22;9456;47.824;16.228;2023-07-08T14:27:48;29.00;53.50
18654;DHT22;9456;47.824;16.228;2023-07-08T14:30:18;29.00;52.90
18654;DHT22;9456;47.824;16.228;2023-07-08T14:32:46;28.90;53.00
18654;DHT22;9456;47.824;16.228;2023-07-08T14:35:17;28.90;52.60
18654;DHT22;9456;47.824;16.228;2023-07-08T14:37:46;28.90;52.70
18654;DHT22;9456;47.824;16.228;2023-07-08T14:40:24;28.90;52.40
18654;DHT22;9456;47.824;16.228;2023-07-08T14:42:56;28.90;52.10
18654;DHT22;9456;47.824;16.228;2023-07-08T14:45:17;28.90;52.80
18654;DHT22;9456;47.824;16.228;2023-07-08T14:47:46;28.90;53.20
18654;DHT22;9456;47.824;16.228;2023-07-08T14:50:16;28.90;52.80
18654;DHT22;9456;47.824;16.228;2023-07-08T14:52:45;29.00;53.40
18654;DHT22;9456;47.824;16.228;2023-07-08T14:55:14;29.10;53.50
18654;DHT22;9456;47.824;16.228;2023-07-08T14:57:44;29.10;53.30
18654;DHT22;9456;47.824;16.228;2023-07-08T15:00:16;29.10;53.40
18654;DHT22;9456;47.824;16.228;2023-07-08T15:02:44;29.20;52.20
18654;DHT22;9456;47.824;16.228;2023-07-08T15:05:17;29.10;52.80
18654;DHT22;9456;47.824;16.228;2023-07-08T15:07:44;29.00;52.80
18654;DHT22;9456;47.824;16.228;2023-07-08T15:10:13;28.90;52.50
18654;DHT22;9456;47.824;16.228;2023-07-08T15:12:43;28.80;53.40
18654;DHT22;9456;47.824;16.228;2023-07-08T15:15:16;28.80;53.50
18654;DHT22;9456;47.824;16.228;2023-07-08T15:17:45;28.80;53.90
18654;DHT22;9456;47.824;16.228;2023-07-08T15:20:15;28.80;53.10
18654;DHT22;9456;47.824;16.228;2023-07-08T15:22:44;28.80;54.20
18654;DHT22;9456;47.824;16.228;2023-07-08T15:25:14;28.80;54.40
18654;DHT22;9456;47.824;16.228;2023-07-08T15:27:43;28.80;54.10
18654;DHT22;9456;47.824;16.228;2023-07-08T15:30:17;28.90;54.20
18654;DHT22;9456;47.824;16.228;2023-07-08T15:32:46;28.90;53.90
18654;DHT22;9456;47.824;16.228;2023-07-08T15:35:16;28.90;54.70
18654;DHT22;9456;47.824;16.228;2023-07-08T15:37:45;29.00;54.20
18654;DHT22;9456;47.824;16.228;2023-07-08T15:40:15;29.00;54.30
18654;DHT22;9456;47.824;16.228;2023-07-08T15:42:44;29.00;54.60
18654;DHT22;9456;47.824;16.228;2023-07-08T15:45:17;29.00;54.30
18654;DHT22;9456;47.824;16.228;2023-07-08T15:47:45;29.00;54.70
18654;DHT22;9456;47.824;16.228;2023-07-08T15:50:15;29.10;54.50
18654;DHT22;9456;47.824;16.228;2023-07-08T15:52:43;29.00;54.90
18654;DHT22;9456;47.824;16.228;2023-07-08T15:55:13;29.10;54.20
18654;DHT22;9456;47.824;16.228;2023-07-08T15:57:44;29.00;52.80
18654;DHT22;9456;47.824;16.228;2023-07-08T16:00:17;29.00;53.00
18654;DHT22;9456;47.824;16.228;2023-07-08T16:02:47;29.10;53.50